Armstrong, Illinois
Current Conditions -  °F | °C
As of 5:10 PM on Saturday 20 Dec 2014 (Local Time) from KTIP Reporting Station
Overcast Overcast  
Wind Chill: 29°   Ceiling: 6000
Heat Index: 33°   Visibility: 10mi
Dew Point: 30°   Wind: 5mph
Humidity: 87%   Direction: 180°S
Pressure: 30.26"   Gusts: NA
Location:  40.31°N, 87.88°W
Report Text: KTIP 202310Z AUTO 18004KT 10SM OVC060 01/M01 A3026 RMK AO2 T00081011
Loading
Personal Weather Stations






























Interactive Weather Map New forecast layout! Learn more

10-Day Weather Forecast

Advertisements
Track Severe Weather on mobile